Grey Cloud Island, Minnesota
Current Conditions -  °F | °C
As of 12:30 AM on Sunday 26 Oct 2014 (Local Time) from KSGS Reporting Station
Clear Clear  
Wind Chill: 43°   Ceiling: Unl
Heat Index: 43°   Visibility: 10mi
Dew Point: 30°   Wind: 0mph
Humidity: 60%   Direction: NA
Pressure: 30.05"   Gusts: NA
Location:  44.8338°N, 92.9932°W
Report Text: KSGS 260530Z AUTO 00000KT 10SM CLR 06/M01 A3005 RMK AO2 T00611012
Loading
Personal Weather Stations






























Interactive Weather Map
Tropical Storm Tracking
New forecast layout! Learn more

10-Day Weather Forecast

Advertisements
Track Severe Weather on mobile